Time;durP1;ratioP1;P1;durP2;ratioP2;P2;SDS_P1;SDS_P2;PMS_P1;PMS_P2;Temp;Humidity;BMP_temperature;BMP_pressure;BME280_temperature;BME280_humidity;BME280_pressure;Samples;Min_cycle;Max_cycle;Signal;HPM_P1;HPM_P2
2023/12/16 00:02:13;;;;;;;23.80;7.22;;;;;;;6.58;100.00;103756.44;5083032;28;20055;-73
2023/12/16 00:04:40;;;;;;;23.27;6.80;;;;;;;6.60;100.00;103754.81;5080213;28;20468;-70
2023/12/16 00:07:06;;;;;;;22.60;6.75;;;;;;;6.64;100.00;103763.81;5083706;28;20046;-67
2023/12/16 00:09:31;;;;;;;23.15;6.90;;;;;;;6.63;100.00;103759.34;5081108;28;20032;-68
2023/12/16 00:11:57;;;;;;;23.13;6.60;;;;;;;6.62;100.00;103752.28;5083906;28;20024;-70
2023/12/16 00:14:22;;;;;;;20.42;6.47;;;;;;;6.58;100.00;103766.94;5081615;28;20502;-70
2023/12/16 00:16:48;;;;;;;25.40;7.13;;;;;;;6.58;100.00;103760.75;5082564;28;20024;-70
2023/12/16 00:19:14;;;;;;;22.42;6.65;;;;;;;6.58;100.00;103761.69;5086755;28;20134;-71
2023/12/16 00:21:39;;;;;;;23.42;6.95;;;;;;;6.60;100.00;103760.06;5085640;28;20111;-67
2023/12/16 00:24:06;;;;;;;24.08;7.03;;;;;;;6.60;100.00;103753.91;5088017;28;20114;-67
2023/12/16 00:26:33;;;;;;;23.20;6.60;;;;;;;6.57;100.00;103765.13;5084528;28;20519;-69
2023/12/16 00:28:58;;;;;;;23.30;7.05;;;;;;;6.55;100.00;103750.97;5088171;28;20081;-67
2023/12/16 00:31:23;;;;;;;23.00;6.50;;;;;;;6.59;100.00;103758.22;5085211;28;20139;-66
2023/12/16 00:33:49;;;;;;;22.38;6.53;;;;;;;6.58;100.00;103751.16;5085294;28;20115;-73
2023/12/16 00:36:15;;;;;;;22.15;6.57;;;;;;;6.57;100.00;103746.72;5086607;28;20110;-67
2023/12/16 00:38:40;;;;;;;23.63;6.97;;;;;;;6.61;100.00;103746.13;5085254;28;20582;-67
2023/12/16 00:41:05;;;;;;;21.98;6.10;;;;;;;6.61;100.00;103746.13;5087727;28;20031;-67
2023/12/16 00:43:31;;;;;;;21.17;6.35;;;;;;;6.60;100.00;103740.75;5084548;28;20115;-71
2023/12/16 00:45:57;;;;;;;22.38;6.38;;;;;;;6.59;100.00;103737.19;5087262;28;20032;-67
2023/12/16 00:48:22;;;;;;;22.38;6.28;;;;;;;6.58;100.00;103738.03;5085226;28;20036;-68
2023/12/16 00:50:47;;;;;;;21.83;5.70;;;;;;;6.60;100.00;103727.63;5086191;28;20032;-69
2023/12/16 00:53:13;;;;;;;21.38;5.85;;;;;;;6.59;100.00;103737.19;5086408;28;20028;-71
2023/12/16 00:55:40;;;;;;;22.48;6.25;;;;;;;6.59;100.00;103742.44;5084880;28;20028;-68
2023/12/16 00:58:06;;;;;;;21.27;5.68;;;;;;;6.58;100.00;103739.72;5087312;28;20056;-68
2023/12/16 01:00:31;;;;;;;23.45;6.07;;;;;;;6.59;100.00;103742.44;5084007;28;20036;-69
2023/12/16 01:02:58;;;;;;;22.30;6.22;;;;;;;6.59;100.00;103736.28;5087078;28;20402;-69
2023/12/16 01:05:24;;;;;;;22.77;6.03;;;;;;;6.57;100.00;103736.19;5084498;28;20036;-67
2023/12/16 01:07:50;;;;;;;21.63;5.85;;;;;;;6.58;100.00;103731.84;5086046;28;20035;-67
2023/12/16 01:10:15;;;;;;;23.08;5.72;;;;;;;6.62;100.00;103742.66;5085862;28;20020;-67
2023/12/16 01:12:41;;;;;;;22.80;5.85;;;;;;;6.60;100.00;103741.66;5084901;28;20036;-68
2023/12/16 01:15:06;;;;;;;21.45;5.55;;;;;;;6.59;100.00;103750.34;5086909;28;20120;-68
2023/12/16 01:17:33;;;;;;;21.38;5.72;;;;;;;6.59;100.00;103746.81;5083945;28;20376;-66
2023/12/16 01:19:58;;;;;;;21.20;5.93;;;;;;;6.60;100.00;103746.91;5086905;28;20110;-68
2023/12/16 01:22:24;;;;;;;22.35;5.72;;;;;;;6.58;100.00;103738.03;5084296;28;20063;-72
2023/12/16 01:24:49;;;;;;;23.38;5.68;;;;;;;6.60;100.00;103746.00;5085816;28;20038;-71
2023/12/16 01:27:14;;;;;;;22.60;5.50;;;;;;;6.60;100.00;103741.66;5085450;28;20112;-70
2023/12/16 01:29:40;;;;;;;21.02;5.53;;;;;;;6.59;100.00;103739.81;5084070;28;20376;-72
2023/12/16 01:32:06;;;;;;;22.38;5.82;;;;;;;6.59;100.00;103742.44;5086954;28;20067;-71
2023/12/16 01:34:31;;;;;;;22.33;6.20;;;;;;;6.58;100.00;103738.03;5083311;28;20031;-71
2023/12/16 01:36:56;;;;;;;21.67;5.60;;;;;;;6.59;100.00;103729.31;5086354;28;20032;-72
2023/12/16 01:39:22;;;;;;;20.73;5.80;;;;;;;6.61;100.00;103725.09;5084509;28;20511;-70
2023/12/16 01:41:47;;;;;;;23.92;6.82;;;;;;;6.59;100.00;103721.41;5084887;28;20520;-73
2023/12/16 01:44:13;;;;;;;21.45;5.40;;;;;;;6.58;100.00;103724.88;5085670;28;20029;-71
2023/12/16 01:46:39;;;;;;;21.15;5.68;;;;;;;6.58;100.00;103714.38;5083443;28;20074;-72
2023/12/16 01:49:04;;;;;;;22.98;5.40;;;;;;;6.61;100.00;103724.16;5086839;28;20028;-72
2023/12/16 01:51:31;;;;;;;22.25;5.47;;;;;;;6.59;100.00;103724.06;5079106;28;20471;-72
2023/12/16 01:53:57;;;;;;;21.45;5.35;;;;;;;6.51;100.00;103727.91;5085925;28;20114;-72
2023/12/16 01:56:24;;;;;;;21.58;5.90;;;;;;;6.51;100.00;103733.16;5083761;28;20040;-72
2023/12/16 01:58:50;;;;;;;22.42;5.82;;;;;;;6.53;100.00;103731.53;5085064;28;20078;-71
2023/12/16 02:01:16;;;;;;;20.08;5.43;;;;;;;6.48;100.00;103729.41;5084792;28;20441;-71
2023/12/16 02:03:44;;;;;;;23.70;5.90;;;;;;;6.40;100.00;103734.16;5083308;28;20075;-73
2023/12/16 02:06:09;;;;;;;22.83;5.82;;;;;;;6.39;100.00;103730.63;5085845;28;20064;-70
2023/12/16 02:08:36;;;;;;;21.90;6.10;;;;;;;6.36;100.00;103726.88;5083024;28;20517;-67
2023/12/16 02:11:01;;;;;;;21.25;5.57;;;;;;;6.36;100.00;103721.59;5078688;28;20029;-68
2023/12/16 02:13:26;;;;;;;22.13;5.60;;;;;;;6.32;100.00;103720.50;5085778;28;20038;-66
2023/12/16 02:15:52;;;;;;;21.85;5.60;;;;;;;6.31;100.00;103726.56;5083862;28;20074;-70
2023/12/16 02:18:17;;;;;;;22.10;6.07;;;;;;;6.27;100.00;103727.16;5084211;28;20024;-66
2023/12/16 02:20:43;;;;;;;23.38;5.90;;;;;;;6.20;100.00;103735.41;5085032;28;20028;-67
2023/12/16 02:23:16;;;;;;;20.60;5.60;;;;;;;6.14;100.00;103735.00;5082919;28;20452;-68
2023/12/16 02:25:42;;;;;;;21.48;5.43;;;;;;;6.05;100.00;103732.66;5084902;28;20032;-66
2023/12/16 02:28:08;;;;;;;21.80;6.00;;;;;;;5.96;100.00;103729.38;5083003;28;20086;-67
2023/12/16 02:30:33;;;;;;;23.02;6.05;;;;;;;5.88;100.00;103727.13;5085722;28;20479;-68
2023/12/16 02:32:59;;;;;;;22.38;5.93;;;;;;;5.84;100.00;103730.34;5082283;28;20064;-68
2023/12/16 02:35:24;;;;;;;21.52;5.80;;;;;;;5.81;100.00;103730.13;5085010;28;20124;-67
2023/12/16 02:37:49;;;;;;;21.30;6.30;;;;;;;5.78;100.00;103724.63;5083611;28;20047;-67
2023/12/16 02:40:15;;;;;;;22.00;6.10;;;;;;;5.75;100.00;103734.91;5082838;28;20024;-69
2023/12/16 02:42:40;;;;;;;22.85;6.35;;;;;;;5.70;100.00;103737.22;5084937;28;20036;-71
2023/12/16 02:45:06;;;;;;;24.17;6.18;;;;;;;5.67;100.00;103747.53;5082038;28;20027;-68
2023/12/16 02:47:31;;;;;;;22.58;6.32;;;;;;;5.64;100.00;103743.78;5085578;28;20063;-66
2023/12/16 02:49:57;;;;;;;22.20;5.90;;;;;;;5.70;100.00;103752.09;5082437;28;20024;-71
2023/12/16 02:52:22;;;;;;;20.80;5.85;;;;;;;5.69;100.00;103755.50;5084144;28;20064;-70
2023/12/16 02:54:47;;;;;;;21.17;6.28;;;;;;;5.72;100.00;103742.59;5083770;28;20062;-71
2023/12/16 02:57:13;;;;;;;22.77;5.95;;;;;;;5.72;100.00;103745.22;5082806;28;20082;-71
2023/12/16 02:59:39;;;;;;;20.75;6.00;;;;;;;5.75;100.00;103734.91;5084726;28;20024;-70
2023/12/16 03:02:04;;;;;;;21.00;5.85;;;;;;;5.73;100.00;103733.91;5082140;28;20081;-73
2023/12/16 03:04:29;;;;;;;20.63;6.10;;;;;;;5.72;100.00;103734.72;5084520;28;20048;-72
2023/12/16 03:06:55;;;;;;;23.48;6.03;;;;;;;5.67;100.00;103730.88;5082410;28;20044;-71
2023/12/16 03:09:20;;;;;;;22.50;6.10;;;;;;;5.65;100.00;103725.50;5084123;28;20120;-67
2023/12/16 03:11:45;;;;;;;21.88;6.40;;;;;;;5.60;100.00;103726.88;5083659;28;20064;-70
2023/12/16 03:14:11;;;;;;;22.25;6.38;;;;;;;5.55;100.00;103726.56;5082035;28;20071;-71
2023/12/16 03:16:36;;;;;;;20.80;5.97;;;;;;;5.53;100.00;103724.63;5084878;28;20032;-67
2023/12/16 03:19:02;;;;;;;22.73;6.40;;;;;;;5.50;100.00;103730.56;5081404;28;20056;-69
2023/12/16 03:21:28;;;;;;;21.67;6.22;;;;;;;5.52;100.00;103728.03;5084215;28;20028;-70
2023/12/16 03:23:53;;;;;;;23.88;6.28;;;;;;;5.53;100.00;103730.81;5082496;28;20020;-68
2023/12/16 03:26:20;;;;;;;21.33;6.40;;;;;;;5.52;100.00;103726.34;5082873;28;20394;-69
2023/12/16 03:28:45;;;;;;;22.30;6.22;;;;;;;5.52;100.00;103728.03;5083535;28;20039;-71
2023/12/16 03:31:10;;;;;;;21.30;6.28;;;;;;;5.55;100.00;103723.94;5082001;28;20445;-71
2023/12/16 03:33:36;;;;;;;24.02;6.65;;;;;;;5.57;100.00;103730.19;5084649;28;20028;-72
2023/12/16 03:36:01;;;;;;;20.77;6.30;;;;;;;5.59;100.00;103727.69;5077308;28;20070;-73
2023/12/16 03:38:27;;;;;;;21.38;6.28;;;;;;;5.59;100.00;103735.56;5084208;28;20032;-66
2023/12/16 03:40:53;;;;;;;22.55;6.60;;;;;;;5.61;100.00;103733.03;5082079;28;20032;-68
2023/12/16 03:43:18;;;;;;;24.13;6.80;;;;;;;5.66;100.00;103731.66;5082921;28;20498;-67
2023/12/16 03:45:44;;;;;;;22.48;6.78;;;;;;;5.71;100.00;103733.81;5083222;28;20028;-67
2023/12/16 03:48:09;;;;;;;21.77;6.32;;;;;;;5.71;100.00;103733.81;5081556;28;20452;-66
2023/12/16 03:50:34;;;;;;;21.88;6.32;;;;;;;5.72;100.00;103732.09;5083624;28;20050;-69
2023/12/16 03:53:00;;;;;;;21.65;6.20;;;;;;;5.74;100.00;103733.13;5080043;28;20035;-67
2023/12/16 03:55:25;;;;;;;22.88;6.38;;;;;;;5.78;100.00;103739.47;5083510;28;20605;-68
2023/12/16 03:57:50;;;;;;;23.10;6.55;;;;;;;5.82;100.00;103745.06;5082670;28;20454;-68
2023/12/16 04:00:16;;;;;;;21.13;5.93;;;;;;;5.86;100.00;103733.97;5082119;28;20083;-70
2023/12/16 04:02:41;;;;;;;22.15;6.28;;;;;;;5.87;100.00;103735.81;5083453;28;20123;-68
2023/12/16 04:05:08;;;;;;;22.83;6.50;;;;;;;5.86;100.00;103727.81;5080697;28;20041;-67
2023/12/16 04:07:33;;;;;;;23.30;6.22;;;;;;;5.90;100.00;103730.75;5082949;28;20029;-69
2023/12/16 04:09:59;;;;;;;22.42;6.70;;;;;;;5.96;100.00;103734.63;5081189;28;20044;-67
2023/12/16 04:12:24;;;;;;;22.55;6.55;;;;;;;5.95;100.00;103738.94;5083124;28;20029;-67
2023/12/16 04:14:50;;;;;;;24.33;6.50;;;;;;;5.97;100.00;103739.06;5082259;28;20038;-69
2023/12/16 04:17:15;;;;;;;23.40;6.55;;;;;;;5.98;100.00;103740.91;5082004;28;20028;-68
2023/12/16 04:19:52;;;;;;;23.63;6.22;;;;;;;6.08;100.00;103746.91;5083390;28;20103;-65
2023/12/16 04:22:18;;;;;;;22.02;6.28;;;;;;;6.05;100.00;103744.06;5082091;28;20028;-69
2023/12/16 04:24:44;;;;;;;22.90;6.30;;;;;;;6.06;100.00;103737.13;5083078;28;20032;-68
2023/12/16 04:27:09;;;;;;;23.63;6.38;;;;;;;6.07;100.00;103741.53;5081067;28;20460;-68
2023/12/16 04:29:34;;;;;;;23.75;6.50;;;;;;;6.07;100.00;103744.16;5083974;28;20067;-68
2023/12/16 04:32:00;;;;;;;21.80;6.35;;;;;;;6.09;100.00;103732.97;5080868;28;20036;-67
2023/12/16 04:34:25;;;;;;;23.80;6.50;;;;;;;6.11;100.00;103740.94;5083187;28;20029;-69
2023/12/16 04:36:51;;;;;;;23.92;6.25;;;;;;;6.10;100.00;103733.88;5081907;28;20051;-68
2023/12/16 04:39:16;;;;;;;23.58;6.57;;;;;;;6.05;100.00;103735.28;5081960;28;20036;-67
2023/12/16 04:41:41;;;;;;;23.90;6.22;;;;;;;6.03;100.00;103729.00;5083088;28;20028;-71
2023/12/16 04:44:07;;;;;;;22.33;6.25;;;;;;;6.00;100.00;103724.47;5080320;28;20021;-68
2023/12/16 04:46:32;;;;;;;23.73;6.53;;;;;;;5.94;100.00;103722.28;5084024;28;20024;-66
2023/12/16 04:48:57;;;;;;;25.52;6.47;;;;;;;5.93;100.00;103715.22;5081104;28;20025;-66
2023/12/16 04:51:23;;;;;;;22.02;6.30;;;;;;;5.96;100.00;103718.88;5082485;28;20526;-68
2023/12/16 04:53:48;;;;;;;23.92;6.32;;;;;;;5.91;100.00;103727.34;5082353;28;20135;-68
2023/12/16 04:56:13;;;;;;;25.25;6.70;;;;;;;5.85;100.00;103721.63;5079884;28;20056;-69
2023/12/16 04:58:39;;;;;;;23.40;6.40;;;;;;;5.88;100.00;103721.88;5083466;28;20107;-66
2023/12/16 05:01:04;;;;;;;24.80;6.75;;;;;;;5.80;100.00;103720.41;5080384;28;20108;-72
2023/12/16 05:03:31;;;;;;;24.48;6.97;;;;;;;5.72;100.00;103724.22;5084168;28;20536;-70
2023/12/16 05:05:57;;;;;;;22.95;6.65;;;;;;;5.71;100.00;103720.69;5084356;28;20052;-71
2023/12/16 05:08:22;;;;;;;22.25;6.32;;;;;;;5.64;100.00;103718.44;5086189;28;20028;-66
2023/12/16 05:10:48;;;;;;;22.00;5.97;;;;;;;5.61;100.00;103727.78;5085801;28;20021;-69
2023/12/16 05:13:15;;;;;;;21.67;6.03;;;;;;;5.63;100.00;103731.44;5084884;28;20032;-66
2023/12/16 05:15:41;;;;;;;25.73;6.30;;;;;;;5.70;100.00;103723.22;5086949;28;20016;-68
2023/12/16 05:18:07;;;;;;;23.38;6.22;;;;;;;5.59;100.00;103726.00;5083682;28;20024;-67
2023/12/16 05:20:33;;;;;;;22.67;6.68;;;;;;;5.54;100.00;103729.97;5079692;28;20525;-68
2023/12/16 05:23:02;;;;;;;22.67;6.05;;;;;;;5.56;100.00;103736.28;5085429;28;20030;-70
2023/12/16 05:25:28;;;;;;;24.40;6.35;;;;;;;5.48;100.00;103731.28;5084125;28;20463;-69
2023/12/16 05:27:55;;;;;;;22.30;6.20;;;;;;;5.41;100.00;103743.94;5086069;28;20024;-71
2023/12/16 05:30:20;;;;;;;24.48;6.65;;;;;;;5.42;100.00;103747.50;5085106;28;20066;-68
2023/12/16 05:32:45;;;;;;;23.20;6.20;;;;;;;5.33;100.00;103744.19;5083569;28;20029;-68
2023/12/16 05:35:11;;;;;;;23.60;6.40;;;;;;;5.34;100.00;103738.16;5086513;28;20032;-66
2023/12/16 05:37:36;;;;;;;21.65;6.10;;;;;;;5.33;100.00;103738.94;5083403;28;20025;-70
2023/12/16 05:40:03;;;;;;;23.13;6.00;;;;;;;5.40;100.00;103729.03;5085404;28;20031;-67
2023/12/16 05:42:28;;;;;;;23.02;6.90;;;;;;;5.34;100.00;103740.78;5084033;28;20074;-68
2023/12/16 05:44:54;;;;;;;23.52;6.28;;;;;;;5.27;100.00;103736.81;5085430;28;20443;-67
2023/12/16 05:47:19;;;;;;;22.73;6.68;;;;;;;5.27;100.00;103743.75;5084926;28;20063;-69
2023/12/16 05:49:44;;;;;;;22.80;6.30;;;;;;;5.22;100.00;103741.69;5084273;28;20155;-70
2023/12/16 05:52:11;;;;;;;23.13;6.28;;;;;;;5.20;100.00;103747.66;5086142;28;20032;-70
2023/12/16 05:54:36;;;;;;;25.00;6.32;;;;;;;5.18;100.00;103733.50;5083335;28;20056;-72
2023/12/16 05:57:01;;;;;;;25.27;6.47;;;;;;;5.14;100.00;103736.69;5086477;28;20120;-67
2023/12/16 05:59:28;;;;;;;25.02;6.57;;;;;;;5.13;100.00;103733.19;5083671;28;20037;-70
2023/12/16 06:01:53;;;;;;;22.88;6.28;;;;;;;5.11;100.00;103720.75;5084987;28;20027;-70
2023/12/16 06:04:18;;;;;;;23.67;6.72;;;;;;;5.13;100.00;103716.53;5084750;28;20399;-68
2023/12/16 06:06:44;;;;;;;22.73;6.40;;;;;;;5.10;100.00;103711.97;5083599;28;20068;-68
2023/12/16 06:09:09;;;;;;;22.20;6.35;;;;;;;5.09;100.00;103718.00;5086157;28;20082;-67
2023/12/16 06:11:34;;;;;;;23.13;6.55;;;;;;;5.03;100.00;103736.84;5081381;28;20029;-70
2023/12/16 06:14:00;;;;;;;21.85;6.40;;;;;;;5.00;100.00;103740.97;5085650;28;20085;-69
2023/12/16 06:16:25;;;;;;;23.50;6.63;;;;;;;4.96;100.00;103742.41;5082804;28;20032;-67
2023/12/16 06:18:51;;;;;;;23.60;6.63;;;;;;;4.94;100.00;103744.03;5084384;28;20033;-67
2023/12/16 06:21:16;;;;;;;22.48;6.30;;;;;;;4.89;100.00;103743.69;5084705;28;20494;-69
2023/12/16 06:23:42;;;;;;;24.13;6.63;;;;;;;4.93;100.00;103749.16;5083268;28;20375;-70
2023/12/16 06:26:08;;;;;;;21.60;6.53;;;;;;;4.94;100.00;103751.00;5086064;28;20034;-71
2023/12/16 06:28:33;;;;;;;24.25;6.60;;;;;;;4.96;100.00;103731.94;5082280;28;20047;-70
2023/12/16 06:30:58;;;;;;;23.95;6.57;;;;;;;4.94;100.00;103728.31;5085346;28;20027;-72
2023/12/16 06:33:24;;;;;;;23.23;6.10;;;;;;;4.95;100.00;103731.81;5082233;28;20028;-71
2023/12/16 06:35:50;;;;;;;24.15;6.43;;;;;;;4.92;100.00;103723.75;5084056;28;20064;-69
2023/12/16 06:38:15;;;;;;;23.83;6.75;;;;;;;5.01;100.00;103735.81;5084788;28;20031;-71
2023/12/16 06:40:40;;;;;;;22.75;6.50;;;;;;;4.95;100.00;103737.06;5082413;28;20036;-69
2023/12/16 06:43:06;;;;;;;22.55;6.45;;;;;;;5.00;100.00;103733.09;5085557;28;20111;-67
2023/12/16 06:45:33;;;;;;;23.38;6.30;;;;;;;4.97;100.00;103731.16;5082572;28;20478;-71
2023/12/16 06:47:59;;;;;;;23.42;6.60;;;;;;;5.00;100.00;103733.09;5084810;28;20123;-68
2023/12/16 06:50:24;;;;;;;24.05;6.40;;;;;;;5.02;100.00;103728.84;5083349;28;20604;-66
2023/12/16 06:52:49;;;;;;;23.90;6.18;;;;;;;5.00;100.00;103730.47;5082127;28;20051;-68
2023/12/16 06:55:15;;;;;;;21.20;5.85;;;;;;;4.98;100.00;103739.91;5084298;28;20105;-68
2023/12/16 06:57:41;;;;;;;24.40;6.40;;;;;;;4.95;100.00;103743.25;5082383;28;20037;-71
2023/12/16 07:00:07;;;;;;;22.60;6.07;;;;;;;4.88;100.00;103751.44;5085132;28;20112;-67
2023/12/16 07:02:32;;;;;;;22.10;5.90;;;;;;;4.89;100.00;103745.38;5081705;28;20032;-68
2023/12/16 07:04:57;;;;;;;23.20;6.10;;;;;;;4.78;100.00;103747.22;5084169;28;20048;-70
2023/12/16 07:07:26;;;;;;;23.27;6.30;;;;;;;4.78;100.00;103748.94;5082878;28;20028;-69
2023/12/16 07:09:51;;;;;;;23.55;6.40;;;;;;;4.78;100.00;103736.75;5083643;28;20040;-69
2023/12/16 07:12:17;;;;;;;22.95;6.18;;;;;;;4.75;100.00;103747.00;5084002;28;20028;-68
2023/12/16 07:14:43;;;;;;;23.63;6.47;;;;;;;4.71;100.00;103750.19;5081899;28;20025;-70
2023/12/16 07:17:08;;;;;;;23.25;6.85;;;;;;;4.67;100.00;103759.50;5085080;28;20118;-68
2023/12/16 07:19:34;;;;;;;23.90;6.55;;;;;;;4.64;100.00;103747.91;5077605;28;20112;-68
2023/12/16 07:22:00;;;;;;;25.80;6.50;;;;;;;4.71;100.00;103758.06;5084322;28;20546;-67
2023/12/16 07:24:25;;;;;;;22.58;6.35;;;;;;;4.75;100.00;103756.56;5082232;28;20024;-72
2023/12/16 07:26:51;;;;;;;22.45;6.45;;;;;;;4.73;100.00;103759.06;5082840;28;20114;-67
2023/12/16 07:29:16;;;;;;;23.38;6.25;;;;;;;4.69;100.00;103764.91;5083590;28;20170;-72
2023/12/16 07:31:46;;;;;;;21.63;6.30;;;;;;;4.76;100.00;103771.50;5081459;28;20040;-72
2023/12/16 07:34:12;;;;;;;22.88;6.18;;;;;;;4.73;100.00;103769.53;5084313;28;20052;-72
2023/12/16 07:36:37;;;;;;;22.15;6.10;;;;;;;4.78;100.00;103772.53;5080924;28;20454;-67
2023/12/16 07:39:02;;;;;;;21.02;6.10;;;;;;;4.81;100.00;103776.28;5083083;28;20040;-69
2023/12/16 07:41:28;;;;;;;22.02;5.82;;;;;;;4.88;100.00;103777.66;5081980;28;20020;-74
2023/12/16 07:43:53;;;;;;;21.85;5.90;;;;;;;4.83;100.00;103787.78;5082983;28;20116;-73
2023/12/16 07:46:18;;;;;;;24.45;6.32;;;;;;;4.82;100.00;103772.88;5083118;28;20066;-73
2023/12/16 07:48:44;;;;;;;22.85;5.90;;;;;;;4.77;100.00;103781.19;5081494;28;20033;-73
2023/12/16 07:51:16;;;;;;;20.70;5.80;;;;;;;4.85;100.00;103777.44;5079964;28;20028;-73
2023/12/16 07:53:47;;;;;;;22.52;5.97;;;;;;;4.80;100.00;103770.94;5082851;28;20027;-74
2023/12/16 07:56:19;;;;;;;23.15;6.10;;;;;;;4.81;100.00;103778.91;5082185;28;20032;-73
2023/12/16 07:58:45;;;;;;;23.73;6.07;;;;;;;4.85;100.00;103775.72;5082603;28;20024;-73
2023/12/16 08:01:14;;;;;;;24.90;6.47;;;;;;;4.88;100.00;103781.19;5081758;28;20044;-73
2023/12/16 08:03:39;;;;;;;23.67;6.05;;;;;;;4.88;100.00;103775.94;5083525;28;20375;-73
2023/12/16 08:06:05;;;;;;;21.38;5.97;;;;;;;5.01;100.00;103790.88;5080581;28;20053;-73
2023/12/16 08:08:30;;;;;;;22.70;5.90;;;;;;;5.05;100.00;103790.31;5084226;28;20038;-73
2023/12/16 08:10:55;;;;;;;22.65;5.53;;;;;;;5.07;100.00;103783.47;5081205;28;20162;-73
2023/12/16 08:13:21;;;;;;;23.15;5.80;;;;;;;5.09;100.00;103786.19;5082950;28;20040;-73
2023/12/16 08:15:46;;;;;;;22.15;5.50;;;;;;;5.15;100.00;103796.22;5082149;28;20024;-73
2023/12/16 08:18:12;;;;;;;22.20;5.18;;;;;;;5.20;100.00;103801.03;5081913;28;20390;-73
2023/12/16 08:20:37;;;;;;;25.83;5.80;;;;;;;5.21;100.00;103796.66;5083288;28;20032;-73
2023/12/16 08:23:05;;;;;;;22.67;5.68;;;;;;;5.19;100.00;103803.53;5079700;28;20111;-73
2023/12/16 08:25:31;;;;;;;24.65;5.43;;;;;;;5.26;100.00;103807.50;5076765;28;20028;-73
2023/12/16 08:27:56;;;;;;;22.67;5.05;;;;;;;5.32;100.00;103805.34;5083702;28;20356;-73
2023/12/16 08:30:22;;;;;;;21.30;5.20;;;;;;;5.35;100.00;103802.94;5081989;28;20028;-74
2023/12/16 08:32:47;;;;;;;21.35;5.18;;;;;;;5.54;100.00;103808.72;5080320;28;20497;-74
2023/12/16 08:35:14;;;;;;;23.38;5.63;;;;;;;5.64;100.00;103815.53;5083857;28;20029;-74
2023/12/16 08:37:40;;;;;;;22.15;4.95;;;;;;;5.72;100.00;103805.59;5080907;28;20037;-74
2023/12/16 08:40:06;;;;;;;23.60;5.47;;;;;;;5.77;100.00;103801.59;5086410;28;20078;-74
2023/12/16 08:42:32;;;;;;;23.63;5.45;;;;;;;5.89;100.00;103806.78;5085936;28;20086;-74
2023/12/16 08:44:57;;;;;;;23.92;5.60;;;;;;;5.94;100.00;103806.31;5085650;28;20438;-73
2023/12/16 08:47:22;;;;;;;21.27;5.28;;;;;;;6.04;100.00;103813.19;5086777;28;20122;-65
2023/12/16 08:49:48;;;;;;;23.10;5.30;;;;;;;6.12;100.00;103805.81;5084203;28;20025;-66
2023/12/16 08:52:13;;;;;;;22.38;5.28;;;;;;;6.17;100.00;103804.41;5075922;28;20332;-66
2023/12/16 08:54:40;;;;;;;23.40;5.53;;;;;;;6.24;100.00;103806.66;5087260;28;20032;-65
2023/12/16 08:57:06;;;;;;;22.67;5.85;;;;;;;6.31;100.00;103801.84;5085041;28;20024;-68
2023/12/16 08:59:31;;;;;;;23.88;5.80;;;;;;;6.37;100.00;103797.00;5086052;28;20035;-66
2023/12/16 09:01:57;;;;;;;23.92;5.70;;;;;;;6.36;100.00;103800.44;5086513;28;20103;-65
2023/12/16 09:04:22;;;;;;;22.10;5.32;;;;;;;6.41;100.00;103793.81;5084117;28;20503;-73
2023/12/16 09:06:48;;;;;;;23.35;6.15;;;;;;;6.43;100.00;103802.69;5087775;28;20081;-73
2023/12/16 09:09:14;;;;;;;23.08;5.57;;;;;;;6.47;100.00;103825.75;5079740;28;20028;-72
2023/12/16 09:11:40;;;;;;;23.48;5.70;;;;;;;6.54;100.00;103816.53;5086764;28;20089;-74
2023/12/16 09:14:05;;;;;;;22.08;5.72;;;;;;;6.56;100.00;103813.22;5085004;28;20092;-74
2023/12/16 09:16:34;;;;;;;22.75;5.90;;;;;;;6.63;100.00;103810.19;5085563;28;20518;-73
2023/12/16 09:18:59;;;;;;;22.15;5.60;;;;;;;6.65;100.00;103822.56;5084326;28;20035;-74
2023/12/16 09:21:24;;;;;;;24.27;6.07;;;;;;;6.68;100.00;103809.59;5084570;28;20024;-70
2023/12/16 09:23:49;;;;;;;22.58;5.70;;;;;;;6.71;100.00;103809.81;5086796;28;20043;-73
2023/12/16 09:26:15;;;;;;;23.08;6.00;;;;;;;6.74;100.00;103810.03;5083877;28;20392;-73
2023/12/16 09:28:40;;;;;;;23.58;5.88;;;;;;;6.78;100.00;103817.31;5086716;28;20498;-73
2023/12/16 09:31:06;;;;;;;22.58;5.75;;;;;;;6.82;100.00;103821.97;5084365;28;20071;-69
2023/12/16 09:33:31;;;;;;;22.60;5.68;;;;;;;6.81;100.00;103812.25;5085325;28;20383;-70
2023/12/16 09:35:56;;;;;;;23.92;5.88;;;;;;;6.87;100.00;103831.06;5085697;28;20394;-68
2023/12/16 09:38:22;;;;;;;23.58;5.88;;;;;;;6.92;100.00;103841.91;5083682;28;20097;-68
2023/12/16 09:40:47;;;;;;;23.65;5.82;;;;;;;6.91;100.00;103846.25;5086973;28;20020;-67
2023/12/16 09:43:16;;;;;;;23.17;5.97;;;;;;;6.96;100.00;103836.97;5083303;28;20425;-66
2023/12/16 09:45:46;;;;;;;21.50;5.90;;;;;;;6.97;100.00;103841.41;5086255;28;20028;-66
2023/12/16 09:48:14;;;;;;;23.98;6.68;;;;;;;7.05;100.00;103830.47;5083837;28;20028;-68
2023/12/16 09:50:41;;;;;;;23.58;6.25;;;;;;;7.08;100.00;103844.75;5084468;28;20028;-68
2023/12/16 09:53:06;;;;;;;21.55;5.85;;;;;;;7.15;100.00;103846.09;5083989;28;20048;-70
2023/12/16 09:55:32;;;;;;;24.52;6.80;;;;;;;7.21;100.00;103853.44;5084991;28;20027;-67
2023/12/16 09:57:59;;;;;;;23.13;6.00;;;;;;;7.21;100.00;103853.44;5085134;28;20035;-68
2023/12/16 10:00:28;;;;;;;23.98;6.20;;;;;;;7.25;100.00;103843.25;5083759;28;20084;-69
2023/12/16 10:02:56;;;;;;;24.05;6.07;;;;;;;7.29;100.00;103846.97;5085779;28;20078;-70
2023/12/16 10:05:25;;;;;;;23.73;6.53;;;;;;;7.33;100.00;103849.91;5083133;28;20470;-69
2023/12/16 10:07:56;;;;;;;23.60;6.75;;;;;;;7.38;100.00;103851.94;5085944;28;20031;-67
2023/12/16 10:10:22;;;;;;;23.70;6.68;;;;;;;7.39;100.00;103851.13;5083435;28;20433;-68
2023/12/16 10:12:48;;;;;;;24.42;6.70;;;;;;;7.43;100.00;103861.94;5086430;28;20032;-71
2023/12/16 10:15:28;;;;;;;25.73;7.00;;;;;;;7.45;100.00;103856.78;5082647;28;20028;-68
2023/12/16 10:17:54;;;;;;;25.13;6.55;;;;;;;7.49;100.00;103849.19;5080615;28;20104;-67
2023/12/16 10:20:19;;;;;;;24.33;7.00;;;;;;;7.53;100.00;103850.31;5086056;28;20082;-67
2023/12/16 10:22:45;;;;;;;23.45;7.18;;;;;;;7.57;100.00;103851.41;5082730;28;20029;-66
2023/12/16 10:25:11;;;;;;;24.88;7.18;;;;;;;7.58;100.00;103859.41;5085510;28;20556;-68
2023/12/16 10:27:36;;;;;;;25.08;7.40;;;;;;;7.59;100.00;103860.34;5083497;28;20092;-68
2023/12/16 10:30:05;;;;;;;24.38;7.05;;;;;;;7.60;100.00;103860.44;5084418;28;20425;-71
2023/12/16 10:32:30;;;;;;;24.83;7.50;;;;;;;7.63;100.00;103857.06;5084089;28;20096;-71
2023/12/16 10:34:56;;;;;;;27.30;7.72;;;;;;;7.66;100.00;103857.28;5083513;28;20036;-71
2023/12/16 10:37:21;;;;;;;27.25;7.82;;;;;;;7.68;100.00;103851.28;5085418;28;20035;-68
2023/12/16 10:39:46;;;;;;;24.10;7.07;;;;;;;7.73;100.00;103855.94;5082496;28;20028;-69
2023/12/16 10:42:12;;;;;;;25.60;7.95;;;;;;;7.74;100.00;103848.13;5085363;28;20024;-66
2023/12/16 10:44:37;;;;;;;27.35;8.10;;;;;;;7.79;100.00;103851.06;5082902;28;20111;-66
2023/12/16 10:47:08;;;;;;;25.30;7.93;;;;;;;7.81;100.00;103850.34;5083316;28;20055;-69
2023/12/16 10:49:42;;;;;;;24.73;7.65;;;;;;;7.84;100.00;103844.38;5083825;28;20147;-69
2023/12/16 10:52:11;;;;;;;24.27;7.60;;;;;;;7.84;100.00;103837.38;5084591;28;20027;-68
2023/12/16 10:54:40;;;;;;;24.95;7.88;;;;;;;7.83;100.00;103837.28;5082911;28;20043;-68
2023/12/16 10:57:31;;;;;;;24.08;7.45;;;;;;;7.88;100.00;103843.75;5084025;28;20360;-66
2023/12/16 11:00:07;;;;;;;24.48;7.45;;;;;;;7.91;100.00;103833.41;5080203;28;20056;-66
2023/12/16 11:03:07;;;;;;;25.52;7.32;;;;;;;7.94;100.00;103838.88;5082894;28;20114;-67
2023/12/16 11:05:41;;;;;;;25.73;7.55;;;;;;;7.93;100.00;103837.03;5058047;28;20372;-70
2023/12/16 11:08:06;;;;;;;24.75;7.85;;;;;;;7.90;100.00;103828.03;5082627;28;20109;-68
2023/12/16 11:10:32;;;;;;;26.08;7.68;;;;;;;7.95;100.00;103823.97;5083641;28;20117;-65
2023/12/16 11:13:02;;;;;;;24.13;7.47;;;;;;;7.97;100.00;103832.88;5083949;28;20429;-68